Time;durP1;ratioP1;P1;durP2;ratioP2;P2;SDS_P1;SDS_P2;PMS_P1;PMS_P2;Temp;Humidity;BMP_temperature;BMP_pressure;BME280_temperature;BME280_humidity;BME280_pressure;Samples;Min_cycle;Max_cycle;Signal;HPM_P1;HPM_P2
2024/04/13 00:01:45;;;;;;;7.63;5.90;;;;;;;14.93;67.28;100145.94;5157141;27;20014;-90
2024/04/13 00:04:10;;;;;;;9.75;5.50;;;;;;;15.04;67.07;100149.41;5141931;27;20019;-92
2024/04/13 00:06:37;;;;;;;9.20;6.40;;;;;;;15.09;66.80;100154.81;5156014;27;20052;-91
2024/04/13 00:09:04;;;;;;;10.23;6.15;;;;;;;15.01;67.19;100148.06;5162445;27;19996;-93
2024/04/13 00:11:29;;;;;;;13.70;6.47;;;;;;;15.08;67.12;100155.88;5162262;27;20006;-93
2024/04/13 00:13:55;;;;;;;9.98;6.63;;;;;;;15.15;67.00;100165.34;5162550;27;20435;-91
2024/04/13 00:16:21;;;;;;;10.30;5.85;;;;;;;15.20;66.82;100163.72;5163868;27;19991;-91
2024/04/13 00:18:46;;;;;;;9.43;6.68;;;;;;;15.15;66.69;100159.94;5162564;27;19996;-92
2024/04/13 00:21:14;;;;;;;10.70;6.18;;;;;;;15.11;66.83;100149.94;5162669;27;20449;-91
2024/04/13 00:23:40;;;;;;;7.40;6.28;;;;;;;14.99;67.26;100144.81;5162395;27;20000;-93
2024/04/13 00:26:08;;;;;;;7.88;5.97;;;;;;;15.01;67.27;100147.25;5163405;27;20431;-92
2024/04/13 00:28:34;;;;;;;10.73;6.40;;;;;;;15.11;67.14;100166.19;5161455;27;20028;-92
2024/04/13 00:30:59;;;;;;;10.10;5.85;;;;;;;15.03;67.13;100155.94;5162738;27;19992;-91
2024/04/13 00:33:25;;;;;;;9.25;5.68;;;;;;;15.20;66.85;100175.38;5189872;27;20011;-93
2024/04/13 00:35:51;;;;;;;10.75;6.82;;;;;;;15.17;66.63;100159.66;5162919;27;20013;-92
2024/04/13 00:38:17;;;;;;;12.40;6.78;;;;;;;15.25;66.22;100166.38;5161856;27;20011;-92
2024/04/13 00:40:42;;;;;;;19.08;8.50;;;;;;;15.42;65.91;100191.25;5162982;27;20033;-93
2024/04/13 00:43:09;;;;;;;12.70;7.95;;;;;;;15.39;65.93;100183.66;5162173;27;19992;-92
2024/04/13 00:45:44;;;;;;;18.42;9.18;;;;;;;15.36;65.71;100171.47;5164214;27;20003;-92
2024/04/13 00:48:16;;;;;;;11.75;8.35;;;;;;;15.36;65.87;100165.25;5138677;27;19996;-93
2024/04/13 00:50:43;;;;;;;14.60;8.88;;;;;;;15.29;65.90;100173.69;5147107;27;20060;-92
2024/04/13 00:53:11;;;;;;;13.23;7.78;;;;;;;15.31;66.56;100179.63;5169564;27;20010;-91
2024/04/13 00:55:38;;;;;;;11.32;7.07;;;;;;;15.27;66.15;100175.06;5165512;27;20014;-92
2024/04/13 00:58:05;;;;;;;12.45;7.25;;;;;;;15.22;66.15;100173.19;5134147;27;20052;-91
2024/04/13 01:00:33;;;;;;;13.40;7.55;;;;;;;15.23;66.95;100190.25;5135431;27;19996;-91
2024/04/13 01:03:00;;;;;;;11.48;7.82;;;;;;;15.04;67.19;100176.53;5135599;27;20074;-92
2024/04/13 01:05:27;;;;;;;15.57;8.55;;;;;;;15.14;67.17;100192.75;5137183;27;20070;-91
2024/04/13 01:07:54;;;;;;;14.40;8.75;;;;;;;15.03;67.14;100193.91;5134657;27;20467;-92
2024/04/13 01:10:21;;;;;;;15.57;9.10;;;;;;;14.97;67.20;100195.81;5136225;27;20035;-92
2024/04/13 01:12:47;;;;;;;21.00;10.70;;;;;;;14.96;68.02;100199.59;5162452;27;20011;-92
2024/04/13 01:15:13;;;;;;;25.23;13.93;;;;;;;14.92;67.40;100191.22;5137015;27;19999;-93
2024/04/13 01:17:39;;;;;;;21.88;10.48;;;;;;;14.82;67.89;100172.28;5135510;27;20438;-91
2024/04/13 01:20:08;;;;;;;21.85;10.32;;;;;;;14.84;68.17;100180.16;5162303;27;20044;-92
2024/04/13 01:22:33;;;;;;;17.40;10.90;;;;;;;14.91;69.01;100191.50;5137086;27;20071;-91
2024/04/13 01:24:59;;;;;;;19.25;9.77;;;;;;;15.05;70.34;100210.72;5134932;27;20454;-91
2024/04/13 01:27:28;;;;;;;21.92;10.55;;;;;;;14.93;70.42;100186.59;5133616;27;20066;-90
2024/04/13 01:29:53;;;;;;;13.75;10.05;;;;;;;14.91;69.87;100194.22;5161437;27;20011;-90
2024/04/13 01:32:19;;;;;;;18.15;11.02;;;;;;;14.94;70.32;100190.94;5134466;27;20000;-92
2024/04/13 01:34:49;;;;;;;19.15;10.57;;;;;;;14.91;70.45;100197.72;5136614;27;20004;-91
2024/04/13 01:37:15;;;;;;;22.08;10.63;;;;;;;14.90;70.38;100195.28;5161294;27;19999;-92
2024/04/13 01:39:40;;;;;;;17.67;11.52;;;;;;;14.84;70.34;100180.16;5161316;27;20011;-91
2024/04/13 01:42:07;;;;;;;20.77;10.02;;;;;;;14.94;71.32;100193.63;5135440;27;20012;-92
2024/04/13 01:44:33;;;;;;;17.13;9.82;;;;;;;14.93;71.38;100183.91;5135388;27;20001;-93
2024/04/13 01:47:01;;;;;;;16.52;9.63;;;;;;;15.10;72.00;100180.84;5158278;27;20023;-92
2024/04/13 01:49:29;;;;;;;19.17;11.82;;;;;;;14.95;72.69;100171.69;5160459;27;19996;-91
2024/04/13 01:51:56;;;;;;;16.13;9.40;;;;;;;15.10;72.35;100186.25;5159132;27;20035;-91
2024/04/13 01:54:21;;;;;;;13.02;9.90;;;;;;;15.17;71.50;100173.22;5161814;27;19999;-91
2024/04/13 01:56:47;;;;;;;15.25;10.18;;;;;;;15.20;71.53;100169.94;5133676;27;19998;-91
2024/04/13 01:59:12;;;;;;;17.40;11.63;;;;;;;15.21;71.60;100162.59;5142155;27;20041;-92
2024/04/13 02:01:38;;;;;;;17.63;11.98;;;;;;;15.20;70.92;100155.56;5166375;27;20003;-91
2024/04/13 02:04:04;;;;;;;21.08;11.55;;;;;;;15.18;70.83;100150.41;5153229;27;20018;-91
2024/04/13 02:06:30;;;;;;;21.48;14.15;;;;;;;15.16;70.13;100141.75;5165258;27;20019;-91
2024/04/13 02:08:55;;;;;;;30.52;14.93;;;;;;;15.14;70.01;100138.50;5166591;27;19999;-93
2024/04/13 02:11:23;;;;;;;23.48;13.07;;;;;;;15.08;69.83;100134.19;5165887;27;20003;-92
2024/04/13 02:13:49;;;;;;;15.65;10.43;;;;;;;15.12;69.63;100157.75;5192560;27;20117;-91
2024/04/13 02:16:15;;;;;;;13.77;9.25;;;;;;;15.11;68.97;100155.34;5166629;27;20003;-91
2024/04/13 02:18:40;;;;;;;17.40;9.85;;;;;;;15.21;68.79;100168.03;5166389;27;20042;-91
2024/04/13 02:21:07;;;;;;;14.00;9.63;;;;;;;15.13;69.55;100178.38;5166181;27;20011;-90
2024/04/13 02:23:32;;;;;;;19.08;9.43;;;;;;;15.03;69.67;100162.16;5166855;27;19999;-92
2024/04/13 02:26:01;;;;;;;16.50;10.20;;;;;;;15.08;69.80;100166.75;5166223;27;20010;-91
2024/04/13 02:28:27;;;;;;;20.70;10.05;;;;;;;15.05;69.94;100161.88;5164999;27;19998;-91
2024/04/13 02:30:53;;;;;;;15.77;10.25;;;;;;;15.19;69.67;100178.34;5165883;27;20344;-91
2024/04/13 02:33:20;;;;;;;17.80;11.07;;;;;;;15.09;70.24;100162.94;5166633;27;19995;-91
2024/04/13 02:35:48;;;;;;;14.80;10.80;;;;;;;15.11;69.79;100161.56;5168497;27;20015;-91
2024/04/13 02:38:14;;;;;;;18.70;12.18;;;;;;;15.18;70.63;100191.09;5168264;27;20599;-91
2024/04/13 02:40:39;;;;;;;15.75;12.45;;;;;;;15.06;70.41;100172.44;5164555;27;19999;-90
2024/04/13 02:43:05;;;;;;;22.00;12.68;;;;;;;15.17;69.92;100194.94;5166171;27;20014;-92
2024/04/13 02:45:31;;;;;;;20.80;13.35;;;;;;;15.11;69.98;100179.75;5166302;27;19999;-90
2024/04/13 02:47:57;;;;;;;21.65;11.88;;;;;;;15.14;69.74;100187.31;5192787;27;19999;-92
2024/04/13 02:50:26;;;;;;;19.15;12.18;;;;;;;14.92;70.42;100164.13;5164632;27;20066;-92
2024/04/13 02:52:56;;;;;;;15.93;11.55;;;;;;;15.00;69.87;100168.13;5165496;27;20023;-93
2024/04/13 02:55:23;;;;;;;17.35;10.40;;;;;;;14.91;69.81;100165.19;5196119;27;20006;-91
2024/04/13 02:57:49;;;;;;;16.70;10.43;;;;;;;15.03;69.44;100185.75;5166264;27;20070;-92
2024/04/13 03:00:17;;;;;;;19.67;10.45;;;;;;;15.02;70.70;100193.06;5165479;27;20003;-90
2024/04/13 03:02:42;;;;;;;14.95;10.20;;;;;;;15.04;70.59;100174.63;5164908;27;20004;-91
2024/04/13 03:05:08;;;;;;;41.70;14.07;;;;;;;15.07;72.79;100160.50;5160267;27;20015;-91
2024/04/13 03:07:34;;;;;;;27.83;13.00;;;;;;;15.14;73.81;100185.41;5160002;27;20026;-89
2024/04/13 03:10:03;;;;;;;21.23;12.05;;;;;;;14.98;75.29;100186.56;5135497;27;20074;-91
2024/04/13 03:12:28;;;;;;;16.13;10.68;;;;;;;14.76;75.18;100192.38;5165424;27;20004;-90
2024/04/13 03:14:54;;;;;;;18.08;9.85;;;;;;;14.60;75.25;100191.59;5131392;27;20304;-90
2024/04/13 03:17:20;;;;;;;14.60;9.80;;;;;;;14.82;75.33;100199.41;5132324;27;20071;-90
2024/04/13 03:19:45;;;;;;;15.27;9.70;;;;;;;14.78;75.91;100198.31;5133713;27;20000;-91
2024/04/13 03:22:11;;;;;;;19.73;10.68;;;;;;;14.74;75.06;100179.09;5131872;27;19999;-90
2024/04/13 03:24:37;;;;;;;20.30;12.07;;;;;;;14.73;74.80;100184.78;5159942;27;20000;-90
2024/04/13 03:27:03;;;;;;;18.30;11.88;;;;;;;14.77;75.39;100180.41;5133495;27;20402;-90
2024/04/13 03:29:29;;;;;;;18.85;12.18;;;;;;;14.93;75.38;100202.88;5139223;27;20319;-90
2024/04/13 03:31:57;;;;;;;18.42;12.90;;;;;;;14.86;74.99;100188.81;5148058;27;20472;-91
2024/04/13 03:34:23;;;;;;;19.75;13.00;;;;;;;14.89;75.46;100185.53;5153001;27;20031;-91
2024/04/13 03:36:49;;;;;;;22.02;14.00;;;;;;;14.92;75.90;100201.25;5164028;27;20005;-90
2024/04/13 03:39:15;;;;;;;22.50;13.90;;;;;;;14.89;75.36;100186.34;5164324;27;20428;-90
2024/04/13 03:41:40;;;;;;;19.90;13.13;;;;;;;14.86;75.00;100178.78;5191055;27;19995;-91
2024/04/13 03:44:07;;;;;;;15.55;12.90;;;;;;;14.96;74.89;100188.75;5164424;27;20018;-89
2024/04/13 03:46:33;;;;;;;21.95;12.68;;;;;;;15.07;75.35;100187.63;5164544;27;20006;-90
2024/04/13 03:49:02;;;;;;;20.70;13.15;;;;;;;15.20;76.85;100193.56;5159704;27;20003;-91
2024/04/13 03:51:30;;;;;;;22.13;15.57;;;;;;;14.97;78.50;100162.47;5151463;27;20022;-91
2024/04/13 03:53:57;;;;;;;26.70;16.13;;;;;;;14.98;79.79;100193.91;5162598;27;20023;-91
2024/04/13 03:56:23;;;;;;;25.92;15.82;;;;;;;14.85;79.63;100203.44;5157368;27;20003;-91
2024/04/13 03:58:49;;;;;;;22.88;15.38;;;;;;;14.70;80.04;100180.72;5194855;27;20010;-91
2024/04/13 04:01:15;;;;;;;24.08;14.93;;;;;;;14.60;81.29;100183.47;5195954;27;20010;-90
2024/04/13 04:03:41;;;;;;;23.52;14.27;;;;;;;14.61;82.25;100195.94;5166562;27;19999;-88
2024/04/13 04:06:07;;;;;;;24.05;13.80;;;;;;;14.48;81.66;100177.50;5165846;27;20110;-89
2024/04/13 04:08:36;;;;;;;16.98;12.63;;;;;;;14.46;82.11;100182.38;5156239;27;20015;-91
2024/04/13 04:11:01;;;;;;;18.10;13.52;;;;;;;14.50;81.61;100195.09;5145187;27;20007;-90
2024/04/13 04:13:27;;;;;;;16.60;13.15;;;;;;;14.51;81.58;100187.78;5162915;27;20008;-90
2024/04/13 04:15:53;;;;;;;17.73;14.32;;;;;;;14.48;81.55;100193.75;5150870;27;20022;-90
2024/04/13 04:18:18;;;;;;;25.90;13.70;;;;;;;14.56;81.90;100209.47;5173164;27;20003;-90
2024/04/13 04:20:47;;;;;;;18.00;12.98;;;;;;;14.44;82.20;100198.91;5151396;27;20007;-91
2024/04/13 04:23:13;;;;;;;19.73;13.70;;;;;;;14.39;82.49;100198.91;5154724;27;20007;-90
2024/04/13 04:25:42;;;;;;;18.60;13.52;;;;;;;14.49;82.41;100206.22;5160313;27;20014;-90
2024/04/13 04:28:09;;;;;;;17.48;12.75;;;;;;;14.40;82.82;100200.56;5134705;27;19999;-90
2024/04/13 04:30:34;;;;;;;19.27;13.13;;;;;;;14.53;82.81;100220.84;5136584;27;20000;-89
2024/04/13 04:33:00;;;;;;;21.05;13.85;;;;;;;14.47;83.00;100203.78;5135269;27;20035;-90
2024/04/13 04:35:26;;;;;;;19.17;12.95;;;;;;;14.33;83.02;100189.97;5167403;27;20012;-90
2024/04/13 04:37:51;;;;;;;19.20;13.35;;;;;;;14.59;82.75;100221.66;5227814;27;20017;-90
2024/04/13 04:40:20;;;;;;;18.17;13.50;;;;;;;14.57;82.29;100208.41;5200950;27;20003;-90
2024/04/13 04:42:49;;;;;;;18.08;12.45;;;;;;;14.61;82.27;100211.38;5202201;27;20069;-90
2024/04/13 04:45:15;;;;;;;19.63;12.52;;;;;;;14.61;82.42;100208.66;5199342;27;20002;-90
2024/04/13 04:47:41;;;;;;;16.27;12.80;;;;;;;14.54;82.17;100204.28;5200115;27;20002;-91
2024/04/13 04:50:07;;;;;;;16.67;12.40;;;;;;;14.77;81.75;100225.69;5180051;27;20487;-91
2024/04/13 04:52:32;;;;;;;17.52;11.70;;;;;;;14.80;81.12;100222.47;5151823;27;19999;-90
2024/04/13 04:55:01;;;;;;;17.17;12.93;;;;;;;14.72;82.76;100211.06;5134303;27;20006;-90
2024/04/13 04:57:26;;;;;;;20.65;13.88;;;;;;;14.72;84.21;100210.28;5161595;27;20031;-90
2024/04/13 04:59:52;;;;;;;18.30;13.00;;;;;;;14.63;83.57;100195.63;5133637;27;20007;-91
2024/04/13 05:02:18;;;;;;;24.10;14.55;;;;;;;14.62;83.78;100199.44;5159059;27;20014;-91
2024/04/13 05:04:43;;;;;;;20.17;14.05;;;;;;;14.66;84.54;100208.66;5135077;27;20010;-91
2024/04/13 05:07:09;;;;;;;24.70;13.60;;;;;;;14.67;84.54;100197.56;5133081;27;20014;-91
2024/04/13 05:09:36;;;;;;;17.63;13.50;;;;;;;14.80;84.90;100214.31;5133820;27;20007;-91
2024/04/13 05:12:02;;;;;;;16.27;12.88;;;;;;;14.77;84.46;100195.88;5133804;27;20006;-91
2024/04/13 05:14:27;;;;;;;17.73;13.40;;;;;;;14.84;84.52;100209.97;5160909;27;20303;-89
2024/04/13 05:16:53;;;;;;;20.58;13.55;;;;;;;14.82;84.18;100202.09;5132959;27;20011;-91
2024/04/13 05:19:18;;;;;;;20.77;14.02;;;;;;;15.01;83.29;100217.78;5133867;27;20014;-90
2024/04/13 05:21:44;;;;;;;15.80;13.00;;;;;;;15.02;83.04;100217.47;5137093;27;20008;-91
2024/04/13 05:24:10;;;;;;;18.63;13.70;;;;;;;14.89;83.75;100196.38;5160512;27;20003;-91
2024/04/13 05:26:35;;;;;;;16.48;14.27;;;;;;;14.93;83.39;100192.03;5132510;27;20003;-90
2024/04/13 05:29:03;;;;;;;17.50;13.60;;;;;;;15.14;84.25;100214.44;5160262;27;20014;-90
2024/04/13 05:31:29;;;;;;;18.38;13.52;;;;;;;15.12;84.33;100197.66;5134175;27;20067;-90
2024/04/13 05:33:54;;;;;;;16.13;12.70;;;;;;;15.21;83.83;100201.41;5159229;27;20016;-91
2024/04/13 05:36:21;;;;;;;22.50;14.45;;;;;;;15.22;84.27;100200.31;5159072;27;20006;-90
2024/04/13 05:38:47;;;;;;;18.80;12.48;;;;;;;15.41;82.84;100202.38;5133444;27;20400;-90
2024/04/13 05:41:15;;;;;;;20.42;13.05;;;;;;;15.48;83.20;100202.88;5159437;27;20006;-91
2024/04/13 05:43:41;;;;;;;17.58;12.52;;;;;;;15.56;82.96;100202.28;5160681;27;20003;-90
2024/04/13 05:46:16;;;;;;;;;;;;;;;;;;;;;
2024/04/13 05:48:45;;;;;;;15.63;11.85;;;;;;;15.64;81.66;100200.88;5164415;27;20331;-91
2024/04/13 05:51:11;;;;;;;15.25;11.40;;;;;;;15.65;80.42;100200.63;5133464;27;20000;-90
2024/04/13 05:53:37;;;;;;;14.05;11.55;;;;;;;15.73;79.82;100196.53;5132696;27;20015;-91
2024/04/13 05:56:06;;;;;;;15.70;11.55;;;;;;;15.90;78.77;100202.38;5132310;27;20079;-92
2024/04/13 05:58:32;;;;;;;16.90;11.27;;;;;;;16.01;78.95;100203.09;5138936;27;20022;-90
2024/04/13 06:00:58;;;;;;;16.52;11.68;;;;;;;16.07;78.38;100206.59;5171921;27;20408;-90
2024/04/13 06:03:26;;;;;;;15.95;10.98;;;;;;;16.16;77.26;100189.41;5213721;27;20018;-90
2024/04/13 06:05:52;;;;;;;16.30;11.75;;;;;;;16.29;77.47;100190.63;5166516;27;19999;-90
2024/04/13 06:08:18;;;;;;;19.45;13.07;;;;;;;16.49;76.72;100205.09;5158751;27;20008;-91
2024/04/13 06:10:44;;;;;;;22.73;18.00;;;;;;;16.45;76.01;100198.63;5159307;27;20019;-89
2024/04/13 06:13:09;;;;;;;25.88;19.55;;;;;;;16.55;75.95;100212.91;5151019;27;20015;-90
2024/04/13 06:15:38;;;;;;;25.23;19.85;;;;;;;16.77;76.14;100225.22;5213929;27;20063;-90
2024/04/13 06:18:04;;;;;;;24.50;18.77;;;;;;;16.77;76.24;100219.78;5168809;27;20007;-92
2024/04/13 06:20:35;;;;;;;26.83;20.25;;;;;;;16.82;76.44;100208.84;5136099;27;20008;-92
2024/04/13 06:23:01;;;;;;;23.60;17.58;;;;;;;16.90;75.04;100208.22;5133987;27;20006;-91
2024/04/13 06:25:26;;;;;;;25.05;18.63;;;;;;;16.97;74.13;100216.03;5161224;27;20003;-92
2024/04/13 06:27:52;;;;;;;31.65;21.00;;;;;;;17.11;74.29;100203.34;5132210;27;20082;-91
2024/04/13 06:30:18;;;;;;;22.35;16.13;;;;;;;17.32;74.08;100216.69;5132479;27;20322;-87
2024/04/13 06:32:45;;;;;;;18.92;16.08;;;;;;;17.42;72.92;100207.56;5158921;27;20000;-91
2024/04/13 06:35:11;;;;;;;27.08;18.63;;;;;;;17.64;71.95;100221.44;5132818;27;20070;-90
2024/04/13 06:37:36;;;;;;;24.58;18.00;;;;;;;17.54;71.71;100200.59;5133749;27;20007;-91
2024/04/13 06:40:05;;;;;;;24.38;20.25;;;;;;;17.80;71.24;100224.72;5135048;27;20000;-90
2024/04/13 06:42:31;;;;;;;22.48;18.90;;;;;;;17.73;71.03;100207.94;5195676;27;20022;-91
2024/04/13 06:44:57;;;;;;;27.77;18.88;;;;;;;17.83;71.47;100224.16;5211108;27;20011;-89
2024/04/13 06:47:22;;;;;;;27.08;20.55;;;;;;;17.82;70.48;100211.59;5160646;27;20085;-89
2024/04/13 06:49:48;;;;;;;31.85;22.58;;;;;;;17.91;72.04;100215.31;5184540;27;20007;-89
2024/04/13 06:52:17;;;;;;;27.52;20.42;;;;;;;18.15;70.89;100231.53;5131560;27;20068;-91
2024/04/13 06:54:42;;;;;;;25.42;20.35;;;;;;;18.24;69.94;100220.78;5131736;27;20004;-90
2024/04/13 06:57:08;;;;;;;23.40;17.70;;;;;;;18.42;70.29;100230.00;5158196;27;20004;-92
2024/04/13 06:59:34;;;;;;;33.88;18.38;;;;;;;18.36;71.18;100215.66;5130489;27;20008;-91
2024/04/13 07:02:00;;;;;;;23.45;16.33;;;;;;;18.69;70.10;100242.06;5130307;27;19999;-90
2024/04/13 07:04:25;;;;;;;18.85;14.65;;;;;;;18.82;68.15;100248.69;5131341;27;20010;-90
2024/04/13 07:06:51;;;;;;;13.73;11.63;;;;;;;18.78;66.00;100230.19;5135204;27;19999;-90
2024/04/13 07:09:20;;;;;;;12.00;6.47;;;;;;;18.73;63.21;100224.78;5158262;27;20018;-90
2024/04/13 07:11:49;;;;;;;6.82;5.10;;;;;;;18.74;59.89;100214.72;5163742;27;20018;-91
2024/04/13 07:14:14;;;;;;;11.75;5.45;;;;;;;18.91;60.17;100219.59;5187590;27;20024;-90
2024/04/13 07:16:40;;;;;;;7.78;4.95;;;;;;;19.06;59.04;100223.94;5204626;27;20007;-92
2024/04/13 07:19:06;;;;;;;7.75;5.22;;;;;;;19.20;58.98;100232.91;5179522;27;20023;-96
2024/04/13 07:21:31;;;;;;;14.32;6.25;;;;;;;19.29;59.68;100230.28;5162584;27;20019;-95
2024/04/13 07:23:57;;;;;;;7.13;5.40;;;;;;;19.17;59.36;100217.97;5163060;27;20012;-94
2024/04/13 07:26:23;;;;;;;10.73;5.60;;;;;;;19.41;59.32;100237.94;5138390;27;20020;-96
2024/04/13 07:28:59;;;;;;;7.30;5.13;;;;;;;19.30;58.33;100218.22;5140099;27;20012;-95
2024/04/13 07:31:27;;;;;;;11.57;5.85;;;;;;;19.35;57.93;100229.06;5167473;27;20020;-96
2024/04/13 07:33:55;;;;;;;10.13;6.00;;;;;;;19.22;57.50;100224.44;5140682;27;20003;-95
2024/04/13 07:36:24;;;;;;;9.10;5.28;;;;;;;19.37;57.89;100224.09;5146235;27;20012;-91
2024/04/13 07:38:52;;;;;;;8.73;5.80;;;;;;;19.62;57.84;100239.09;5143821;27;20007;-93
2024/04/13 07:41:18;;;;;;;12.18;5.80;;;;;;;19.48;57.58;100224.66;5163166;27;20008;-95
2024/04/13 07:43:44;;;;;;;7.90;5.63;;;;;;;19.57;57.83;100217.38;5164359;27;20083;-92
2024/04/13 07:46:12;;;;;;;12.02;5.68;;;;;;;19.55;56.65;100212.22;5167359;27;20011;-95
2024/04/13 07:48:44;;;;;;;11.43;5.53;;;;;;;19.84;56.13;100223.88;5195177;27;20002;-92
2024/04/13 07:51:10;;;;;;;25.25;22.40;;;;;;;19.78;55.41;100206.81;5141188;27;20072;-96
2024/04/13 07:53:37;;;;;;;11.38;7.00;;;;;;;19.86;55.84;100216.19;5165768;27;20000;-96
2024/04/13 07:56:05;;;;;;;9.15;5.47;;;;;;;19.99;56.20;100224.34;5138883;27;20000;-93
2024/04/13 07:58:31;;;;;;;6.65;5.85;;;;;;;19.96;56.06;100199.53;5143182;27;19988;-94
2024/04/13 08:00:57;;;;;;;11.52;6.45;;;;;;;19.99;56.98;100204.41;5140083;27;20000;-94
2024/04/13 08:03:23;;;;;;;13.60;8.63;;;;;;;20.12;57.11;100208.97;5223205;22;20008;-96
2024/04/13 08:05:50;;;;;;;15.55;7.38;;;;;;;20.16;56.66;100198.22;5140274;27;20028;-95
2024/04/13 08:08:18;;;;;;;19.60;12.82;;;;;;;20.26;55.44;100200.72;5165605;27;20015;-95
2024/04/13 08:10:44;;;;;;;9.85;5.40;;;;;;;20.39;55.61;100216.22;5139080;27;19996;-96
2024/04/13 08:13:10;;;;;;;12.93;6.03;;;;;;;20.31;56.03;100192.34;5138561;27;20075;-96
2024/04/13 08:15:41;;;;;;;9.23;5.65;;;;;;;20.32;56.44;100206.84;5138604;27;20002;-96
2024/04/13 08:18:07;;;;;;;8.05;6.18;;;;;;;20.32;56.68;100204.13;5140156;27;20124;-96
2024/04/13 08:20:33;;;;;;;8.75;5.38;;;;;;;20.25;56.54;100199.06;5138904;27;19996;-94
2024/04/13 08:23:03;;;;;;;9.45;7.13;;;;;;;20.32;56.53;100199.44;5166143;27;20000;-95
2024/04/13 08:25:29;;;;;;;10.32;6.22;;;;;;;20.38;56.09;100186.47;5168422;27;20028;-96
2024/04/13 08:27:56;;;;;;;10.05;5.63;;;;;;;20.40;56.82;100192.41;5165975;27;20079;-96
2024/04/13 08:30:22;;;;;;;10.50;5.90;;;;;;;20.40;55.92;100192.41;5139574;27;20024;-94
2024/04/13 08:32:48;;;;;;;10.00;6.00;;;;;;;20.30;56.60;100193.50;5136439;27;20019;-94
2024/04/13 08:35:23;;;;;;;11.25;5.85;;;;;;;20.27;56.70;100177.69;5136253;27;20023;-96
2024/04/13 08:37:49;;;;;;;8.80;5.88;;;;;;;20.39;56.29;100194.31;5137257;27;20047;-95
2024/04/13 08:40:14;;;;;;;10.02;5.20;;;;;;;20.72;55.88;100210.44;5135888;27;20007;-92
2024/04/13 08:42:41;;;;;;;8.40;5.22;;;;;;;20.61;56.12;100176.28;5163140;27;20011;-93
2024/04/13 08:45:10;;;;;;;6.97;5.35;;;;;;;20.64;55.25;100178.38;5136188;27;20142;-95
2024/04/13 08:47:38;;;;;;;9.73;6.03;;;;;;;20.83;55.01;100191.00;5137383;27;20000;-92
2024/04/13 08:50:06;;;;;;;10.35;5.10;;;;;;;20.98;55.23;100191.38;5135823;27;20007;-92
2024/04/13 08:52:32;;;;;;;9.82;5.53;;;;;;;20.83;54.64;100182.78;5136975;27;20003;-92
2024/04/13 08:54:58;;;;;;;9.40;4.93;;;;;;;21.04;54.42;100183.81;5136059;27;20032;-91
2024/04/13 08:57:25;;;;;;;9.15;4.60;;;;;;;21.24;52.97;100173.38;5134957;27;20006;-90
2024/04/13 08:59:55;;;;;;;9.13;5.13;;;;;;;21.11;52.59;100166.94;5133621;27;20427;-91
2024/04/13 09:02:24;;;;;;;10.57;4.93;;;;;;;21.36;51.76;100179.84;5161631;27;20334;-92
2024/04/13 09:04:53;;;;;;;10.82;4.95;;;;;;;21.34;51.98;100151.97;5141821;27;20079;-92
2024/04/13 09:07:29;;;;;;;11.93;4.97;;;;;;;21.31;52.01;100155.34;5140910;27;19988;-92
2024/04/13 09:09:54;;;;;;;10.23;4.93;;;;;;;21.53;51.65;100170.84;5143132;27;19991;-92
2024/04/13 09:12:26;;;;;;;9.50;4.80;;;;;;;21.61;52.28;100152.00;5138715;27;20047;-93
2024/04/13 09:14:53;;;;;;;11.10;5.22;;;;;;;21.59;51.58;100133.94;5136621;27;19999;-90
2024/04/13 09:17:22;;;;;;;6.70;4.88;;;;;;;21.62;52.02;100148.91;5161355;27;20000;-94
2024/04/13 09:19:48;;;;;;;8.65;5.10;;;;;;;21.86;51.53;100158.59;5167941;27;19992;-92
2024/04/13 09:22:16;;;;;;;9.25;5.35;;;;;;;21.91;51.44;100152.91;5166361;27;20004;-92
2024/04/13 09:24:51;;;;;;;15.15;6.03;;;;;;;21.86;51.52;100150.38;5165065;27;20071;-94
2024/04/13 09:27:18;;;;;;;10.80;4.50;;;;;;;21.93;52.12;100148.72;5163033;27;20327;-93
2024/04/13 09:29:49;;;;;;;9.27;4.85;;;;;;;21.83;50.93;100135.38;5136674;27;20106;-93
2024/04/13 09:32:39;;;;;;;15.80;5.40;;;;;;;21.95;50.72;100145.66;5137293;27;20011;-91
2024/04/13 09:35:14;;;;;;;13.05;5.28;;;;;;;21.89;50.36;100139.53;5162233;27;19999;-94
2024/04/13 09:37:39;;;;;;;9.98;4.65;;;;;;;21.98;49.57;100148.56;5138296;27;20020;-95
2024/04/13 09:40:06;;;;;;;7.32;4.65;;;;;;;21.90;50.25;100138.41;5139372;27;20167;-94
2024/04/13 09:42:32;;;;;;;11.10;4.63;;;;;;;22.03;50.52;100141.28;5138095;27;20016;-93
2024/04/13 09:45:10;;;;;;;8.43;4.97;;;;;;;22.29;51.08;100155.78;5165511;27;20459;-93
2024/04/13 09:47:36;;;;;;;10.80;4.97;;;;;;;22.23;50.59;100139.78;5137124;27;20007;-94
2024/04/13 09:50:02;;;;;;;8.10;4.90;;;;;;;22.24;50.10;100128.50;5135938;27;20078;-93
2024/04/13 09:52:28;;;;;;;7.38;4.70;;;;;;;22.45;49.94;100146.97;5168124;27;19996;-93
2024/04/13 09:54:57;;;;;;;9.02;5.45;;;;;;;22.50;50.15;100133.91;5140798;27;20430;-95
2024/04/13 09:57:22;;;;;;;11.55;5.20;;;;;;;22.30;50.49;100153.81;5166885;27;19993;-94
2024/04/13 09:59:48;;;;;;;7.22;5.13;;;;;;;22.28;50.67;100145.91;5139618;27;20006;-94
2024/04/13 10:02:14;;;;;;;10.15;5.88;;;;;;;22.38;50.02;100129.09;5135680;27;20010;-94
2024/04/13 10:04:43;;;;;;;11.20;5.43;;;;;;;22.47;50.81;100131.78;5162888;27;20031;-94
2024/04/13 10:07:13;;;;;;;9.80;5.57;;;;;;;22.48;51.13;100133.41;5168673;27;19995;-93
2024/04/13 10:09:48;;;;;;;6.60;4.70;;;;;;;22.48;48.74;100125.19;5139142;27;20010;-95
2024/04/13 10:12:19;;;;;;;8.27;4.80;;;;;;;22.56;49.00;100135.31;5167890;27;19996;-93
2024/04/13 10:14:46;;;;;;;11.88;5.22;;;;;;;22.64;49.36;100113.63;5164554;27;20000;-93
2024/04/13 10:17:12;;;;;;;11.43;4.65;;;;;;;22.85;49.43;100105.44;5161696;27;20015;-92
2024/04/13 10:19:40;;;;;;;12.80;5.22;;;;;;;23.00;48.87;100119.38;5164881;27;20005;-95
2024/04/13 10:22:06;;;;;;;7.70;4.75;;;;;;;23.04;47.91;100103.09;5159397;27;20008;-93
2024/04/13 10:24:32;;;;;;;8.27;5.22;;;;;;;23.16;47.47;100127.88;5132760;27;20000;-94
2024/04/13 10:27:10;;;;;;;8.73;5.10;;;;;;;23.26;47.76;100114.88;5132022;27;20000;-93
2024/04/13 10:29:44;;;;;;;6.80;5.25;;;;;;;23.37;47.72;100121.59;5133618;27;20000;-93
2024/04/13 10:32:16;;;;;;;11.80;5.80;;;;;;;23.55;48.14;100123.03;5130443;27;20005;-94
2024/04/13 10:34:45;;;;;;;10.38;5.20;;;;;;;23.45;46.63;100104.22;5156648;27;20011;-94
2024/04/13 10:37:30;;;;;;;12.25;5.35;;;;;;;23.46;46.95;100114.06;5130264;27;19997;-93
2024/04/13 10:39:59;;;;;;;10.10;5.00;;;;;;;23.55;47.31;100128.53;5156207;27;20008;-94
2024/04/13 10:42:39;;;;;;;7.88;5.47;;;;;;;23.33;46.70;100093.97;5127752;27;19997;-93
2024/04/13 10:45:14;;;;;;;10.02;5.18;;;;;;;23.48;46.65;100122.75;5129137;27;20007;-94
2024/04/13 10:47:40;;;;;;;6.57;4.70;;;;;;;23.46;47.27;100099.50;5154486;27;20037;-92
2024/04/13 10:50:15;;;;;;;7.88;5.25;;;;;;;23.59;47.36;100109.41;5128342;27;20009;-92
2024/04/13 10:52:41;;;;;;;7.85;5.05;;;;;;;23.55;47.00;100098.31;5140476;27;20053;-93
2024/04/13 10:55:07;;;;;;;8.85;5.05;;;;;;;23.60;47.50;100105.53;5116498;27;20004;-93
2024/04/13 10:57:33;;;;;;;12.55;5.40;;;;;;;23.47;48.11;100090.09;5113741;27;20453;-93
2024/04/13 10:59:58;;;;;;;9.27;5.18;;;;;;;23.57;47.78;100085.03;5134365;27;19996;-92
2024/04/13 11:02:24;;;;;;;9.68;4.80;;;;;;;23.70;47.42;100093.28;5134584;27;20434;-92
2024/04/13 11:04:50;;;;;;;18.42;6.15;;;;;;;23.74;46.71;100083.22;5161820;27;19996;-89
2024/04/13 11:07:17;;;;;;;10.85;5.43;;;;;;;23.61;48.02;100071.38;5156438;27;20000;-92
2024/04/13 11:09:43;;;;;;;13.63;5.97;;;;;;;23.71;46.98;100105.91;5104313;27;20016;-93
2024/04/13 11:12:11;;;;;;;10.98;4.97;;;;;;;23.75;46.28;100090.34;5108447;27;20335;-93
2024/04/13 11:14:37;;;;;;;10.43;5.72;;;;;;;23.51;46.82;100082.78;5130486;27;19996;-93
2024/04/13 11:17:03;;;;;;;6.80;4.97;;;;;;;23.79;46.87;100099.53;5155715;27;20008;-91